sensor_id;sensor_type;location;lat;lon;timestamp;P1;durP1;ratioP1;P2;durP2;ratioP2
49592;SDS011;35499;51.482;4.264;2022-11-04T00:01:12;3.55;;;2.22;;
49592;SDS011;35499;51.482;4.264;2022-11-04T00:03:37;3.03;;;2.07;;
49592;SDS011;35499;51.482;4.264;2022-11-04T00:06:02;6.13;;;2.10;;
49592;SDS011;35499;51.482;4.264;2022-11-04T00:08:28;6.47;;;2.97;;
49592;SDS011;35499;51.482;4.264;2022-11-04T00:10:54;3.17;;;1.50;;
49592;SDS011;35499;51.482;4.264;2022-11-04T00:13:37;3.38;;;1.92;;
49592;SDS011;35499;51.482;4.264;2022-11-04T00:16:03;3.50;;;1.73;;
49592;SDS011;35499;51.482;4.264;2022-11-04T00:18:46;5.30;;;2.22;;
49592;SDS011;35499;51.482;4.264;2022-11-04T00:21:12;8.43;;;3.53;;
49592;SDS011;35499;51.482;4.264;2022-11-04T00:23:55;3.58;;;1.98;;
49592;SDS011;35499;51.482;4.264;2022-11-04T00:26:40;2.78;;;1.85;;
49592;SDS011;35499;51.482;4.264;2022-11-04T00:29:24;11.10;;;2.20;;
49592;SDS011;35499;51.482;4.264;2022-11-04T00:31:49;5.40;;;1.90;;
49592;SDS011;35499;51.482;4.264;2022-11-04T00:34:33;2.45;;;1.48;;
49592;SDS011;35499;51.482;4.264;2022-11-04T00:36:58;2.47;;;1.77;;
49592;SDS011;35499;51.482;4.264;2022-11-04T00:39:23;7.13;;;3.00;;
49592;SDS011;35499;51.482;4.264;2022-11-04T00:41:48;6.03;;;2.67;;
49592;SDS011;35499;51.482;4.264;2022-11-04T00:44:14;3.53;;;2.10;;
49592;SDS011;35499;51.482;4.264;2022-11-04T00:46:39;5.00;;;2.87;;
49592;SDS011;35499;51.482;4.264;2022-11-04T00:49:04;9.30;;;2.77;;
49592;SDS011;35499;51.482;4.264;2022-11-04T00:51:29;6.37;;;3.00;;
49592;SDS011;35499;51.482;4.264;2022-11-04T00:53:54;5.03;;;2.53;;
49592;SDS011;35499;51.482;4.264;2022-11-04T00:56:22;3.10;;;1.80;;
49592;SDS011;35499;51.482;4.264;2022-11-04T00:58:47;6.70;;;1.90;;
49592;SDS011;35499;51.482;4.264;2022-11-04T01:01:14;6.80;;;2.38;;
49592;SDS011;35499;51.482;4.264;2022-11-04T01:03:43;8.75;;;1.83;;
49592;SDS011;35499;51.482;4.264;2022-11-04T01:06:08;5.45;;;2.65;;
49592;SDS011;35499;51.482;4.264;2022-11-04T01:08:33;4.53;;;1.97;;
49592;SDS011;35499;51.482;4.264;2022-11-04T01:11:06;7.50;;;2.45;;
49592;SDS011;35499;51.482;4.264;2022-11-04T01:13:31;14.73;;;2.00;;
49592;SDS011;35499;51.482;4.264;2022-11-04T01:15:57;7.47;;;2.17;;
49592;SDS011;35499;51.482;4.264;2022-11-04T01:18:23;3.50;;;1.65;;
49592;SDS011;35499;51.482;4.264;2022-11-04T01:20:48;6.03;;;1.83;;
49592;SDS011;35499;51.482;4.264;2022-11-04T01:23:13;5.13;;;1.97;;
49592;SDS011;35499;51.482;4.264;2022-11-04T01:25:38;3.30;;;1.35;;
49592;SDS011;35499;51.482;4.264;2022-11-04T01:28:05;3.00;;;1.48;;
49592;SDS011;35499;51.482;4.264;2022-11-04T01:30:30;6.13;;;2.20;;
49592;SDS011;35499;51.482;4.264;2022-11-04T01:32:55;6.67;;;2.17;;
49592;SDS011;35499;51.482;4.264;2022-11-04T01:35:20;4.20;;;1.40;;
49592;SDS011;35499;51.482;4.264;2022-11-04T01:37:45;6.57;;;2.05;;
49592;SDS011;35499;51.482;4.264;2022-11-04T01:40:10;4.83;;;1.40;;
49592;SDS011;35499;51.482;4.264;2022-11-04T01:42:36;4.07;;;1.80;;
49592;SDS011;35499;51.482;4.264;2022-11-04T01:45:01;5.10;;;1.93;;
49592;SDS011;35499;51.482;4.264;2022-11-04T01:47:31;4.77;;;1.83;;
49592;SDS011;35499;51.482;4.264;2022-11-04T01:50:01;3.95;;;1.75;;
49592;SDS011;35499;51.482;4.264;2022-11-04T01:52:28;13.40;;;2.75;;
49592;SDS011;35499;51.482;4.264;2022-11-04T01:54:54;2.85;;;1.60;;
49592;SDS011;35499;51.482;4.264;2022-11-04T01:57:25;8.10;;;2.97;;
49592;SDS011;35499;51.482;4.264;2022-11-04T01:59:53;4.38;;;1.83;;
49592;SDS011;35499;51.482;4.264;2022-11-04T02:02:19;3.22;;;1.42;;
49592;SDS011;35499;51.482;4.264;2022-11-04T02:04:44;6.83;;;1.17;;
49592;SDS011;35499;51.482;4.264;2022-11-04T02:07:10;8.07;;;1.20;;
49592;SDS011;35499;51.482;4.264;2022-11-04T02:09:36;4.05;;;1.50;;
49592;SDS011;35499;51.482;4.264;2022-11-04T02:12:02;4.75;;;1.13;;
49592;SDS011;35499;51.482;4.264;2022-11-04T02:14:59;1.88;;;1.08;;
49592;SDS011;35499;51.482;4.264;2022-11-04T02:17:30;2.17;;;0.80;;
49592;SDS011;35499;51.482;4.264;2022-11-04T02:20:08;1.45;;;1.10;;
49592;SDS011;35499;51.482;4.264;2022-11-04T02:25:16;3.83;;;0.95;;
49592;SDS011;35499;51.482;4.264;2022-11-04T02:27:57;5.55;;;1.35;;
49592;SDS011;35499;51.482;4.264;2022-11-04T02:30:26;3.30;;;1.10;;
49592;SDS011;35499;51.482;4.264;2022-11-04T02:40:41;6.53;;;1.00;;
49592;SDS011;35499;51.482;4.264;2022-11-04T02:45:35;7.18;;;0.70;;
49592;SDS011;35499;51.482;4.264;2022-11-04T02:48:04;1.50;;;0.88;;
49592;SDS011;35499;51.482;4.264;2022-11-04T02:50:33;2.72;;;1.23;;
49592;SDS011;35499;51.482;4.264;2022-11-04T02:53:01;1.33;;;0.80;;
49592;SDS011;35499;51.482;4.264;2022-11-04T02:55:30;2.20;;;1.08;;
49592;SDS011;35499;51.482;4.264;2022-11-04T02:57:59;2.42;;;1.08;;
49592;SDS011;35499;51.482;4.264;2022-11-04T03:00:26;7.57;;;1.60;;
49592;SDS011;35499;51.482;4.264;2022-11-04T03:02:57;4.53;;;1.35;;
49592;SDS011;35499;51.482;4.264;2022-11-04T03:05:27;5.32;;;1.73;;
49592;SDS011;35499;51.482;4.264;2022-11-04T03:07:54;2.33;;;1.65;;
49592;SDS011;35499;51.482;4.264;2022-11-04T03:10:26;4.45;;;1.67;;
49592;SDS011;35499;51.482;4.264;2022-11-04T03:12:55;4.28;;;1.52;;
49592;SDS011;35499;51.482;4.264;2022-11-04T03:15:23;7.15;;;1.08;;
49592;SDS011;35499;51.482;4.264;2022-11-04T03:17:53;5.03;;;1.08;;
49592;SDS011;35499;51.482;4.264;2022-11-04T03:20:22;5.13;;;1.30;;
49592;SDS011;35499;51.482;4.264;2022-11-04T03:22:48;2.38;;;1.08;;
49592;SDS011;35499;51.482;4.264;2022-11-04T03:25:13;8.70;;;1.65;;
49592;SDS011;35499;51.482;4.264;2022-11-04T03:30:08;7.30;;;1.60;;
49592;SDS011;35499;51.482;4.264;2022-11-04T03:35:14;5.80;;;0.98;;
49592;SDS011;35499;51.482;4.264;2022-11-04T03:37:40;2.63;;;0.77;;
49592;SDS011;35499;51.482;4.264;2022-11-04T03:40:06;1.88;;;0.88;;
49592;SDS011;35499;51.482;4.264;2022-11-04T03:42:31;4.82;;;1.27;;
49592;SDS011;35499;51.482;4.264;2022-11-04T03:47:27;2.15;;;1.25;;
49592;SDS011;35499;51.482;4.264;2022-11-04T03:49:56;3.15;;;0.98;;
49592;SDS011;35499;51.482;4.264;2022-11-04T03:52:22;2.72;;;0.75;;
49592;SDS011;35499;51.482;4.264;2022-11-04T03:54:48;4.03;;;1.53;;
49592;SDS011;35499;51.482;4.264;2022-11-04T03:59:49;3.95;;;1.23;;
49592;SDS011;35499;51.482;4.264;2022-11-04T04:02:21;1.85;;;0.88;;
49592;SDS011;35499;51.482;4.264;2022-11-04T04:05:08;8.52;;;0.77;;
49592;SDS011;35499;51.482;4.264;2022-11-04T04:07:39;11.27;;;0.93;;
49592;SDS011;35499;51.482;4.264;2022-11-04T04:10:19;4.70;;;1.63;;
49592;SDS011;35499;51.482;4.264;2022-11-04T04:13:15;6.35;;;1.33;;
49592;SDS011;35499;51.482;4.264;2022-11-04T04:15:42;6.75;;;1.00;;
49592;SDS011;35499;51.482;4.264;2022-11-04T04:18:09;4.05;;;1.15;;
49592;SDS011;35499;51.482;4.264;2022-11-04T04:20:36;13.75;;;1.83;;
49592;SDS011;35499;51.482;4.264;2022-11-04T04:23:05;2.28;;;0.90;;
49592;SDS011;35499;51.482;4.264;2022-11-04T04:25:52;2.28;;;1.23;;
49592;SDS011;35499;51.482;4.264;2022-11-04T04:28:37;2.28;;;1.10;;
49592;SDS011;35499;51.482;4.264;2022-11-04T04:31:03;0.55;;;0.55;;
49592;SDS011;35499;51.482;4.264;2022-11-04T04:33:28;5.45;;;1.10;;
49592;SDS011;35499;51.482;4.264;2022-11-04T04:35:54;7.37;;;1.33;;
49592;SDS011;35499;51.482;4.264;2022-11-04T04:38:24;15.15;;;1.27;;
49592;SDS011;35499;51.482;4.264;2022-11-04T04:41:16;2.17;;;0.95;;
49592;SDS011;35499;51.482;4.264;2022-11-04T04:44:01;2.67;;;0.85;;
49592;SDS011;35499;51.482;4.264;2022-11-04T04:46:45;5.20;;;1.48;;
49592;SDS011;35499;51.482;4.264;2022-11-04T04:49:11;1.85;;;0.75;;
49592;SDS011;35499;51.482;4.264;2022-11-04T04:51:40;3.37;;;1.50;;
49592;SDS011;35499;51.482;4.264;2022-11-04T04:54:07;7.80;;;1.85;;
49592;SDS011;35499;51.482;4.264;2022-11-04T04:56:32;3.23;;;0.80;;
49592;SDS011;35499;51.482;4.264;2022-11-04T04:58:57;7.70;;;1.13;;
49592;SDS011;35499;51.482;4.264;2022-11-04T05:01:22;6.17;;;0.80;;
49592;SDS011;35499;51.482;4.264;2022-11-04T05:03:47;4.40;;;1.30;;
49592;SDS011;35499;51.482;4.264;2022-11-04T05:06:12;1.47;;;0.73;;
49592;SDS011;35499;51.482;4.264;2022-11-04T05:08:38;4.00;;;0.90;;
49592;SDS011;35499;51.482;4.264;2022-11-04T05:11:06;7.03;;;1.00;;
49592;SDS011;35499;51.482;4.264;2022-11-04T05:13:31;4.27;;;1.37;;
49592;SDS011;35499;51.482;4.264;2022-11-04T05:15:56;7.33;;;2.07;;
49592;SDS011;35499;51.482;4.264;2022-11-04T05:18:22;4.22;;;1.10;;
49592;SDS011;35499;51.482;4.264;2022-11-04T05:20:47;8.20;;;1.60;;
49592;SDS011;35499;51.482;4.264;2022-11-04T05:23:12;8.10;;;1.55;;
49592;SDS011;35499;51.482;4.264;2022-11-04T05:25:39;3.13;;;1.60;;
49592;SDS011;35499;51.482;4.264;2022-11-04T05:28:04;6.45;;;1.40;;
49592;SDS011;35499;51.482;4.264;2022-11-04T05:30:30;8.10;;;0.90;;
49592;SDS011;35499;51.482;4.264;2022-11-04T05:32:55;8.73;;;1.43;;
49592;SDS011;35499;51.482;4.264;2022-11-04T05:35:20;4.07;;;1.30;;
49592;SDS011;35499;51.482;4.264;2022-11-04T05:37:45;3.90;;;1.30;;
49592;SDS011;35499;51.482;4.264;2022-11-04T05:40:10;7.03;;;1.23;;
49592;SDS011;35499;51.482;4.264;2022-11-04T05:42:36;13.98;;;1.23;;
49592;SDS011;35499;51.482;4.264;2022-11-04T05:45:01;4.20;;;0.97;;
49592;SDS011;35499;51.482;4.264;2022-11-04T05:47:26;4.25;;;1.83;;
49592;SDS011;35499;51.482;4.264;2022-11-04T05:49:51;3.80;;;2.20;;
49592;SDS011;35499;51.482;4.264;2022-11-04T05:52:17;18.50;;;1.93;;
49592;SDS011;35499;51.482;4.264;2022-11-04T05:54:42;3.13;;;1.57;;
49592;SDS011;35499;51.482;4.264;2022-11-04T05:57:07;7.17;;;1.40;;
49592;SDS011;35499;51.482;4.264;2022-11-04T05:59:33;11.35;;;1.77;;
49592;SDS011;35499;51.482;4.264;2022-11-04T06:01:58;7.93;;;1.10;;
49592;SDS011;35499;51.482;4.264;2022-11-04T06:04:23;5.07;;;1.40;;
49592;SDS011;35499;51.482;4.264;2022-11-04T06:06:48;3.63;;;1.33;;
49592;SDS011;35499;51.482;4.264;2022-11-04T06:09:13;3.07;;;1.27;;
49592;SDS011;35499;51.482;4.264;2022-11-04T06:11:39;3.40;;;1.80;;
49592;SDS011;35499;51.482;4.264;2022-11-04T06:14:04;6.03;;;1.30;;
49592;SDS011;35499;51.482;4.264;2022-11-04T06:16:29;4.77;;;1.20;;
49592;SDS011;35499;51.482;4.264;2022-11-04T06:18:54;3.83;;;1.60;;
49592;SDS011;35499;51.482;4.264;2022-11-04T06:23:46;3.97;;;1.35;;
49592;SDS011;35499;51.482;4.264;2022-11-04T06:26:11;2.20;;;1.73;;
49592;SDS011;35499;51.482;4.264;2022-11-04T06:28:36;4.00;;;1.38;;
49592;SDS011;35499;51.482;4.264;2022-11-04T06:31:03;3.05;;;1.40;;
49592;SDS011;35499;51.482;4.264;2022-11-04T06:33:29;2.53;;;1.88;;
49592;SDS011;35499;51.482;4.264;2022-11-04T06:35:58;3.58;;;1.35;;
49592;SDS011;35499;51.482;4.264;2022-11-04T06:38:24;3.35;;;1.73;;
49592;SDS011;35499;51.482;4.264;2022-11-04T06:40:50;7.60;;;1.75;;
49592;SDS011;35499;51.482;4.264;2022-11-04T06:43:15;10.07;;;2.63;;
49592;SDS011;35499;51.482;4.264;2022-11-04T06:45:40;8.47;;;1.53;;
49592;SDS011;35499;51.482;4.264;2022-11-04T06:48:05;7.23;;;1.57;;
49592;SDS011;35499;51.482;4.264;2022-11-04T06:50:31;8.52;;;1.77;;
49592;SDS011;35499;51.482;4.264;2022-11-04T06:52:56;5.37;;;2.00;;
49592;SDS011;35499;51.482;4.264;2022-11-04T06:55:21;6.97;;;2.20;;
49592;SDS011;35499;51.482;4.264;2022-11-04T06:57:46;17.00;;;1.97;;
49592;SDS011;35499;51.482;4.264;2022-11-04T07:00:12;4.83;;;1.53;;
49592;SDS011;35499;51.482;4.264;2022-11-04T07:02:37;7.07;;;1.90;;
49592;SDS011;35499;51.482;4.264;2022-11-04T07:05:03;3.80;;;1.70;;
49592;SDS011;35499;51.482;4.264;2022-11-04T07:07:28;7.30;;;1.73;;
49592;SDS011;35499;51.482;4.264;2022-11-04T07:09:53;5.20;;;2.20;;
49592;SDS011;35499;51.482;4.264;2022-11-04T07:12:19;6.80;;;2.37;;
49592;SDS011;35499;51.482;4.264;2022-11-04T07:14:46;7.35;;;1.90;;
49592;SDS011;35499;51.482;4.264;2022-11-04T07:17:11;9.03;;;2.57;;
49592;SDS011;35499;51.482;4.264;2022-11-04T07:19:36;13.03;;;2.43;;
49592;SDS011;35499;51.482;4.264;2022-11-04T07:22:01;2.30;;;1.40;;
49592;SDS011;35499;51.482;4.264;2022-11-04T07:24:26;7.53;;;2.07;;
49592;SDS011;35499;51.482;4.264;2022-11-04T07:26:53;3.53;;;1.90;;
49592;SDS011;35499;51.482;4.264;2022-11-04T07:29:18;5.13;;;2.00;;
49592;SDS011;35499;51.482;4.264;2022-11-04T07:31:43;5.17;;;1.80;;
49592;SDS011;35499;51.482;4.264;2022-11-04T07:34:08;11.53;;;2.10;;
49592;SDS011;35499;51.482;4.264;2022-11-04T07:36:34;6.83;;;2.07;;
49592;SDS011;35499;51.482;4.264;2022-11-04T07:38:59;6.20;;;2.60;;
49592;SDS011;35499;51.482;4.264;2022-11-04T07:41:25;3.17;;;1.70;;
49592;SDS011;35499;51.482;4.264;2022-11-04T07:43:51;4.10;;;2.13;;
49592;SDS011;35499;51.482;4.264;2022-11-04T07:46:17;5.68;;;1.95;;
49592;SDS011;35499;51.482;4.264;2022-11-04T07:48:42;6.30;;;1.77;;
49592;SDS011;35499;51.482;4.264;2022-11-04T07:51:08;2.10;;;1.63;;
49592;SDS011;35499;51.482;4.264;2022-11-04T07:53:35;20.33;;;3.15;;
49592;SDS011;35499;51.482;4.264;2022-11-04T07:56:04;4.38;;;1.50;;
49592;SDS011;35499;51.482;4.264;2022-11-04T07:58:29;7.35;;;1.83;;
49592;SDS011;35499;51.482;4.264;2022-11-04T08:00:58;3.10;;;1.80;;
49592;SDS011;35499;51.482;4.264;2022-11-04T08:03:23;10.95;;;1.90;;
49592;SDS011;35499;51.482;4.264;2022-11-04T08:05:59;2.73;;;1.73;;
49592;SDS011;35499;51.482;4.264;2022-11-04T08:08:25;4.35;;;2.22;;
49592;SDS011;35499;51.482;4.264;2022-11-04T08:10:51;6.88;;;2.58;;
49592;SDS011;35499;51.482;4.264;2022-11-04T08:13:16;8.07;;;2.30;;
49592;SDS011;35499;51.482;4.264;2022-11-04T08:15:42;4.70;;;2.03;;
49592;SDS011;35499;51.482;4.264;2022-11-04T08:18:07;3.28;;;1.80;;
49592;SDS011;35499;51.482;4.264;2022-11-04T08:20:32;6.30;;;2.43;;
49592;SDS011;35499;51.482;4.264;2022-11-04T08:22:57;11.07;;;2.77;;
49592;SDS011;35499;51.482;4.264;2022-11-04T08:25:22;4.03;;;1.87;;
49592;SDS011;35499;51.482;4.264;2022-11-04T08:27:47;5.83;;;2.23;;
49592;SDS011;35499;51.482;4.264;2022-11-04T08:30:13;8.60;;;2.40;;
49592;SDS011;35499;51.482;4.264;2022-11-04T08:32:38;7.73;;;3.57;;
49592;SDS011;35499;51.482;4.264;2022-11-04T08:35:03;9.63;;;2.83;;
49592;SDS011;35499;51.482;4.264;2022-11-04T08:37:28;11.05;;;3.30;;
49592;SDS011;35499;51.482;4.264;2022-11-04T08:39:53;8.23;;;3.47;;
49592;SDS011;35499;51.482;4.264;2022-11-04T08:42:19;6.82;;;2.63;;
49592;SDS011;35499;51.482;4.264;2022-11-04T08:44:45;9.38;;;2.03;;
49592;SDS011;35499;51.482;4.264;2022-11-04T08:47:10;9.30;;;2.40;;
49592;SDS011;35499;51.482;4.264;2022-11-04T08:49:38;5.60;;;2.13;;
49592;SDS011;35499;51.482;4.264;2022-11-04T08:52:04;5.68;;;2.08;;
49592;SDS011;35499;51.482;4.264;2022-11-04T08:54:29;3.33;;;1.55;;
49592;SDS011;35499;51.482;4.264;2022-11-04T08:56:54;12.47;;;2.57;;
49592;SDS011;35499;51.482;4.264;2022-11-04T08:59:20;5.47;;;1.87;;
49592;SDS011;35499;51.482;4.264;2022-11-04T09:01:45;4.67;;;1.83;;
49592;SDS011;35499;51.482;4.264;2022-11-04T09:04:11;4.40;;;1.77;;
49592;SDS011;35499;51.482;4.264;2022-11-04T09:06:37;4.43;;;2.13;;
49592;SDS011;35499;51.482;4.264;2022-11-04T09:09:03;13.27;;;2.72;;
49592;SDS011;35499;51.482;4.264;2022-11-04T09:11:29;4.05;;;2.00;;
49592;SDS011;35499;51.482;4.264;2022-11-04T09:13:57;3.58;;;1.77;;
49592;SDS011;35499;51.482;4.264;2022-11-04T09:16:23;12.32;;;2.85;;
49592;SDS011;35499;51.482;4.264;2022-11-04T09:18:48;6.03;;;2.30;;
49592;SDS011;35499;51.482;4.264;2022-11-04T09:21:13;10.90;;;2.17;;
49592;SDS011;35499;51.482;4.264;2022-11-04T09:23:38;12.77;;;2.67;;
49592;SDS011;35499;51.482;4.264;2022-11-04T09:26:05;7.67;;;2.23;;
49592;SDS011;35499;51.482;4.264;2022-11-04T09:28:30;5.07;;;1.98;;
49592;SDS011;35499;51.482;4.264;2022-11-04T09:30:55;4.97;;;2.30;;
49592;SDS011;35499;51.482;4.264;2022-11-04T09:33:21;9.77;;;2.15;;
49592;SDS011;35499;51.482;4.264;2022-11-04T09:35:53;4.93;;;2.07;;
49592;SDS011;35499;51.482;4.264;2022-11-04T09:38:18;7.38;;;1.98;;
49592;SDS011;35499;51.482;4.264;2022-11-04T09:40:43;5.20;;;2.07;;
49592;SDS011;35499;51.482;4.264;2022-11-04T09:43:13;9.20;;;2.60;;
49592;SDS011;35499;51.482;4.264;2022-11-04T09:48:08;4.88;;;1.50;;
49592;SDS011;35499;51.482;4.264;2022-11-04T09:50:47;5.88;;;2.22;;
49592;SDS011;35499;51.482;4.264;2022-11-04T09:53:16;3.95;;;1.70;;
49592;SDS011;35499;51.482;4.264;2022-11-04T09:55:59;8.05;;;2.42;;
49592;SDS011;35499;51.482;4.264;2022-11-04T09:58:25;4.00;;;1.80;;
49592;SDS011;35499;51.482;4.264;2022-11-04T10:00:54;3.87;;;1.70;;
49592;SDS011;35499;51.482;4.264;2022-11-04T10:25:47;4.55;;;1.67;;
49592;SDS011;35499;51.482;4.264;2022-11-04T10:28:17;9.52;;;2.88;;
49592;SDS011;35499;51.482;4.264;2022-11-04T10:30:42;7.03;;;2.13;;
49592;SDS011;35499;51.482;4.264;2022-11-04T10:35:39;4.72;;;1.65;;
49592;SDS011;35499;51.482;4.264;2022-11-04T10:40:38;8.50;;;2.42;;
49592;SDS011;35499;51.482;4.264;2022-11-04T10:43:04;8.10;;;1.90;;
49592;SDS011;35499;51.482;4.264;2022-11-04T10:45:33;5.10;;;2.28;;
49592;SDS011;35499;51.482;4.264;2022-11-04T10:48:05;2.50;;;1.10;;
49592;SDS011;35499;51.482;4.264;2022-11-04T10:53:01;5.23;;;1.00;;
49592;SDS011;35499;51.482;4.264;2022-11-04T10:57:59;6.27;;;1.40;;
49592;SDS011;35499;51.482;4.264;2022-11-04T11:00:34;2.10;;;1.37;;
49592;SDS011;35499;51.482;4.264;2022-11-04T11:03:00;4.25;;;2.00;;
49592;SDS011;35499;51.482;4.264;2022-11-04T11:05:25;5.90;;;1.30;;
49592;SDS011;35499;51.482;4.264;2022-11-04T11:07:54;7.50;;;1.35;;
49592;SDS011;35499;51.482;4.264;2022-11-04T11:10:22;3.83;;;1.45;;
49592;SDS011;35499;51.482;4.264;2022-11-04T11:13:48;4.40;;;1.10;;
49592;SDS011;35499;51.482;4.264;2022-11-04T11:15:42;4.57;;;1.38;;
49592;SDS011;35499;51.482;4.264;2022-11-04T11:20:37;1.77;;;1.00;;
49592;SDS011;35499;51.482;4.264;2022-11-04T11:23:04;1.00;;;0.60;;
49592;SDS011;35499;51.482;4.264;2022-11-04T11:25:37;1.25;;;0.52;;
49592;SDS011;35499;51.482;4.264;2022-11-04T11:28:09;1.38;;;0.60;;
49592;SDS011;35499;51.482;4.264;2022-11-04T11:30:52;3.33;;;0.63;;
49592;SDS011;35499;51.482;4.264;2022-11-04T11:33:33;2.40;;;0.90;;
49592;SDS011;35499;51.482;4.264;2022-11-04T11:36:01;2.85;;;1.42;;
49592;SDS011;35499;51.482;4.264;2022-11-04T11:38:29;4.43;;;1.88;;
49592;SDS011;35499;51.482;4.264;2022-11-04T11:41:11;8.57;;;2.03;;
49592;SDS011;35499;51.482;4.264;2022-11-04T11:43:41;3.67;;;1.15;;
49592;SDS011;35499;51.482;4.264;2022-11-04T11:46:07;4.18;;;2.05;;
49592;SDS011;35499;51.482;4.264;2022-11-04T11:48:40;4.57;;;1.80;;
49592;SDS011;35499;51.482;4.264;2022-11-04T11:51:07;12.95;;;3.00;;
49592;SDS011;35499;51.482;4.264;2022-11-04T11:53:35;6.57;;;2.03;;
49592;SDS011;35499;51.482;4.264;2022-11-04T11:56:12;6.53;;;1.88;;
49592;SDS011;35499;51.482;4.264;2022-11-04T11:58:45;4.15;;;1.85;;
49592;SDS011;35499;51.482;4.264;2022-11-04T12:01:31;2.60;;;1.52;;
49592;SDS011;35499;51.482;4.264;2022-11-04T12:03:58;3.58;;;1.27;;
49592;SDS011;35499;51.482;4.264;2022-11-04T12:06:28;4.80;;;1.20;;
49592;SDS011;35499;51.482;4.264;2022-11-04T12:09:08;3.70;;;1.10;;
49592;SDS011;35499;51.482;4.264;2022-11-04T12:11:51;1.65;;;1.30;;
49592;SDS011;35499;51.482;4.264;2022-11-04T12:25:02;1.63;;;0.60;;
49592;SDS011;35499;51.482;4.264;2022-11-04T12:30:03;5.68;;;0.75;;
49592;SDS011;35499;51.482;4.264;2022-11-04T12:32:46;1.98;;;0.65;;
49592;SDS011;35499;51.482;4.264;2022-11-04T12:35:16;0.50;;;0.30;;
49592;SDS011;35499;51.482;4.264;2022-11-04T12:40:27;0.40;;;0.40;;
49592;SDS011;35499;51.482;4.264;2022-11-04T12:48:10;1.77;;;0.75;;
49592;SDS011;35499;51.482;4.264;2022-11-04T12:58:13;0.45;;;0.20;;
49592;SDS011;35499;51.482;4.264;2022-11-04T13:00:41;0.40;;;0.40;;
49592;SDS011;35499;51.482;4.264;2022-11-04T13:03:09;2.30;;;0.73;;
49592;SDS011;35499;51.482;4.264;2022-11-04T13:08:09;0.93;;;0.38;;
49592;SDS011;35499;51.482;4.264;2022-11-04T13:10:38;1.38;;;0.35;;
49592;SDS011;35499;51.482;4.264;2022-11-04T13:13:04;1.08;;;0.57;;
49592;SDS011;35499;51.482;4.264;2022-11-04T13:15:32;2.08;;;0.45;;
49592;SDS011;35499;51.482;4.264;2022-11-04T13:18:04;0.50;;;0.10;;
49592;SDS011;35499;51.482;4.264;2022-11-04T13:20:33;1.95;;;0.30;;
49592;SDS011;35499;51.482;4.264;2022-11-04T13:23:01;1.10;;;0.20;;
49592;SDS011;35499;51.482;4.264;2022-11-04T13:27:53;1.07;;;0.20;;
49592;SDS011;35499;51.482;4.264;2022-11-04T13:35:38;1.30;;;0.40;;
49592;SDS011;35499;51.482;4.264;2022-11-04T13:38:13;0.38;;;0.20;;
49592;SDS011;35499;51.482;4.264;2022-11-04T13:40:41;0.70;;;0.25;;
49592;SDS011;35499;51.482;4.264;2022-11-04T13:43:19;0.73;;;0.10;;
49592;SDS011;35499;51.482;4.264;2022-11-04T13:48:32;0.10;;;0.10;;
49592;SDS011;35499;51.482;4.264;2022-11-04T13:50:59;0.20;;;0.17;;
49592;SDS011;35499;51.482;4.264;2022-11-04T13:53:45;0.20;;;0.20;;
49592;SDS011;35499;51.482;4.264;2022-11-04T13:58:36;0.47;;;0.23;;
49592;SDS011;35499;51.482;4.264;2022-11-04T14:01:08;1.00;;;0.20;;
49592;SDS011;35499;51.482;4.264;2022-11-04T14:08:24;0.30;;;0.20;;
49592;SDS011;35499;51.482;4.264;2022-11-04T14:16:08;1.08;;;0.30;;
49592;SDS011;35499;51.482;4.264;2022-11-04T14:18:35;0.45;;;0.15;;
49592;SDS011;35499;51.482;4.264;2022-11-04T14:21:02;0.45;;;0.32;;
49592;SDS011;35499;51.482;4.264;2022-11-04T14:23:28;0.17;;;0.10;;
49592;SDS011;35499;51.482;4.264;2022-11-04T14:26:00;1.60;;;0.23;;
49592;SDS011;35499;51.482;4.264;2022-11-04T14:28:27;0.88;;;0.30;;
49592;SDS011;35499;51.482;4.264;2022-11-04T14:30:57;6.68;;;0.22;;
49592;SDS011;35499;51.482;4.264;2022-11-04T14:33:28;0.65;;;0.20;;
49592;SDS011;35499;51.482;4.264;2022-11-04T14:35:55;0.20;;;0.20;;
49592;SDS011;35499;51.482;4.264;2022-11-04T14:38:25;0.15;;;0.10;;
49592;SDS011;35499;51.482;4.264;2022-11-04T14:41:10;0.57;;;0.22;;
49592;SDS011;35499;51.482;4.264;2022-11-04T14:43:35;2.65;;;1.27;;
49592;SDS011;35499;51.482;4.264;2022-11-04T14:46:00;1.07;;;0.57;;
49592;SDS011;35499;51.482;4.264;2022-11-04T14:48:26;1.20;;;0.20;;
49592;SDS011;35499;51.482;4.264;2022-11-04T14:50:53;2.30;;;0.30;;
49592;SDS011;35499;51.482;4.264;2022-11-04T14:53:27;0.22;;;0.22;;
49592;SDS011;35499;51.482;4.264;2022-11-04T14:58:27;0.30;;;0.20;;
49592;SDS011;35499;51.482;4.264;2022-11-04T15:00:54;0.57;;;0.30;;
49592;SDS011;35499;51.482;4.264;2022-11-04T15:05:54;0.20;;;0.10;;
49592;SDS011;35499;51.482;4.264;2022-11-04T15:08:29;1.17;;;0.22;;
49592;SDS011;35499;51.482;4.264;2022-11-04T15:10:59;0.30;;;0.10;;
49592;SDS011;35499;51.482;4.264;2022-11-04T15:13:25;0.75;;;0.22;;
49592;SDS011;35499;51.482;4.264;2022-11-04T15:15:50;0.35;;;0.13;;
49592;SDS011;35499;51.482;4.264;2022-11-04T15:18:18;0.80;;;0.15;;
49592;SDS011;35499;51.482;4.264;2022-11-04T15:20:48;4.78;;;0.95;;
49592;SDS011;35499;51.482;4.264;2022-11-04T15:23:15;1.90;;;0.30;;
49592;SDS011;35499;51.482;4.264;2022-11-04T15:25:47;0.63;;;0.30;;
49592;SDS011;35499;51.482;4.264;2022-11-04T15:28:22;0.45;;;0.45;;
49592;SDS011;35499;51.482;4.264;2022-11-04T15:33:22;0.70;;;0.15;;
49592;SDS011;35499;51.482;4.264;2022-11-04T15:35:48;0.00;;;0.00;;
49592;SDS011;35499;51.482;4.264;2022-11-04T15:38:13;3.07;;;0.40;;
49592;SDS011;35499;51.482;4.264;2022-11-04T15:40:40;0.10;;;0.10;;
49592;SDS011;35499;51.482;4.264;2022-11-04T15:43:06;0.95;;;0.75;;
49592;SDS011;35499;51.482;4.264;2022-11-04T15:46:08;0.30;;;0.10;;
49592;SDS011;35499;51.482;4.264;2022-11-04T15:48:28;1.73;;;0.40;;
49592;SDS011;35499;51.482;4.264;2022-11-04T15:53:35;2.72;;;0.40;;
49592;SDS011;35499;51.482;4.264;2022-11-04T15:56:03;0.50;;;0.38;;
49592;SDS011;35499;51.482;4.264;2022-11-04T15:58:28;0.00;;;0.00;;
49592;SDS011;35499;51.482;4.264;2022-11-04T16:00:55;0.82;;;0.20;;
49592;SDS011;35499;51.482;4.264;2022-11-04T16:03:21;0.10;;;0.10;;
49592;SDS011;35499;51.482;4.264;2022-11-04T16:06:04;1.20;;;0.35;;
49592;SDS011;35499;51.482;4.264;2022-11-04T16:08:30;0.20;;;0.20;;
49592;SDS011;35499;51.482;4.264;2022-11-04T16:13:32;0.50;;;0.50;;
49592;SDS011;35499;51.482;4.264;2022-11-04T16:18:36;0.73;;;0.20;;
49592;SDS011;35499;51.482;4.264;2022-11-04T16:21:04;2.30;;;0.35;;
49592;SDS011;35499;51.482;4.264;2022-11-04T16:23:29;0.55;;;0.20;;
49592;SDS011;35499;51.482;4.264;2022-11-04T16:25:57;0.73;;;0.30;;
49592;SDS011;35499;51.482;4.264;2022-11-04T16:28:23;0.63;;;0.20;;
49592;SDS011;35499;51.482;4.264;2022-11-04T16:31:02;5.13;;;0.60;;
49592;SDS011;35499;51.482;4.264;2022-11-04T16:35:53;3.55;;;0.50;;
49592;SDS011;35499;51.482;4.264;2022-11-04T16:38:18;1.10;;;0.50;;
49592;SDS011;35499;51.482;4.264;2022-11-04T16:40:45;1.65;;;0.32;;
49592;SDS011;35499;51.482;4.264;2022-11-04T16:43:10;0.28;;;0.28;;
49592;SDS011;35499;51.482;4.264;2022-11-04T16:45:36;1.67;;;1.27;;
49592;SDS011;35499;51.482;4.264;2022-11-04T16:48:03;0.20;;;0.20;;
49592;SDS011;35499;51.482;4.264;2022-11-04T16:50:28;0.98;;;0.30;;
49592;SDS011;35499;51.482;4.264;2022-11-04T16:52:55;2.13;;;0.50;;
49592;SDS011;35499;51.482;4.264;2022-11-04T16:55:21;0.80;;;0.17;;
49592;SDS011;35499;51.482;4.264;2022-11-04T16:57:48;5.32;;;0.22;;
49592;SDS011;35499;51.482;4.264;2022-11-04T17:00:19;2.78;;;0.50;;
49592;SDS011;35499;51.482;4.264;2022-11-04T17:02:44;0.30;;;0.15;;
49592;SDS011;35499;51.482;4.264;2022-11-04T17:05:10;3.72;;;0.20;;
49592;SDS011;35499;51.482;4.264;2022-11-04T17:07:37;0.40;;;0.40;;
49592;SDS011;35499;51.482;4.264;2022-11-04T17:10:11;2.15;;;0.77;;